createdAt,value
2023-03-12T00:02:05.512Z,9.18
2023-03-12T00:05:02.752Z,12.00
2023-03-12T00:07:59.956Z,10.93
2023-03-12T00:10:56.782Z,9.75
2023-03-12T00:13:56.703Z,10.57
2023-03-12T00:16:53.557Z,9.77
2023-03-12T00:19:53.953Z,8.95
2023-03-12T00:25:47.575Z,8.30
2023-03-12T00:28:44.596Z,8.20
2023-03-12T00:31:41.464Z,10.05
2023-03-12T00:34:38.333Z,10.13
2023-03-12T00:37:38.232Z,8.77
2023-03-12T00:40:35.149Z,9.27
2023-03-12T00:43:32.017Z,8.75
2023-03-12T00:46:29.121Z,5.00
2023-03-12T00:49:25.948Z,6.35
2023-03-12T00:52:22.834Z,7.72
2023-03-12T00:55:19.632Z,7.55
2023-03-12T00:58:16.491Z,6.15
2023-03-12T01:01:13.463Z,7.13
2023-03-12T01:04:11.053Z,9.30
2023-03-12T01:07:07.951Z,12.18
2023-03-12T01:10:05.634Z,8.75
2023-03-12T01:13:02.597Z,8.55
2023-03-12T01:15:59.449Z,10.50
2023-03-12T01:19:01.467Z,10.05
2023-03-12T01:21:58.278Z,8.15
2023-03-12T01:24:55.076Z,7.10
2023-03-12T01:27:52.729Z,8.02
2023-03-12T01:30:49.883Z,9.93
2023-03-12T01:33:52.160Z,10.05
2023-03-12T01:36:48.977Z,7.55
2023-03-12T01:39:45.778Z,10.32
2023-03-12T01:42:42.632Z,7.15
2023-03-12T01:46:02.796Z,6.72
2023-03-12T01:49:15.942Z,7.43
2023-03-12T01:52:27.379Z,6.70
2023-03-12T01:55:24.593Z,6.35
2023-03-12T01:58:22.205Z,8.40
2023-03-12T02:01:21.793Z,5.75
2023-03-12T02:04:21.754Z,7.50
2023-03-12T02:07:18.814Z,5.20
2023-03-12T02:10:17.044Z,5.82
2023-03-12T02:13:14.176Z,5.03
2023-03-12T02:16:11.033Z,5.78
2023-03-12T02:19:27.512Z,3.13
2023-03-12T02:22:25.106Z,6.18
2023-03-12T02:25:51.465Z,5.82
2023-03-12T02:28:50.406Z,3.45
2023-03-12T02:31:55.393Z,4.90
2023-03-12T02:34:52.278Z,5.22
2023-03-12T02:37:54.942Z,5.18
2023-03-12T02:40:53.054Z,4.85
2023-03-12T02:44:00.563Z,2.60
2023-03-12T02:47:00.784Z,3.75
2023-03-12T02:49:57.600Z,3.75
2023-03-12T02:52:54.496Z,3.72
2023-03-12T02:55:51.368Z,4.22
2023-03-12T02:58:48.466Z,3.83
2023-03-12T03:01:45.625Z,3.97
2023-03-12T03:04:42.517Z,2.92
2023-03-12T03:07:39.842Z,3.22
2023-03-12T03:10:36.650Z,5.05
2023-03-12T03:13:33.933Z,3.72
2023-03-12T03:16:30.803Z,3.83
2023-03-12T03:19:27.632Z,3.00
2023-03-12T03:22:24.528Z,5.13
2023-03-12T03:25:23.140Z,5.55
2023-03-12T03:28:22.715Z,3.42
2023-03-12T03:31:20.322Z,4.00
2023-03-12T03:34:17.176Z,5.68
2023-03-12T03:37:14.058Z,3.38
2023-03-12T03:40:12.323Z,4.32
2023-03-12T03:43:09.257Z,3.38
2023-03-12T03:46:06.437Z,5.00
2023-03-12T03:49:03.497Z,2.05
2023-03-12T03:52:00.333Z,2.67
2023-03-12T03:54:57.193Z,2.55
2023-03-12T03:57:54.022Z,3.97
2023-03-12T04:00:51.018Z,2.67
2023-03-12T04:03:47.839Z,2.25
2023-03-12T04:06:44.646Z,3.72
2023-03-12T04:09:41.465Z,4.22
2023-03-12T04:12:38.289Z,4.78
2023-03-12T04:15:35.124Z,2.53
2023-03-12T04:18:32.346Z,4.10
2023-03-12T04:21:29.309Z,2.25
2023-03-12T04:24:26.126Z,3.38
2023-03-12T04:27:22.952Z,3.55
2023-03-12T04:30:19.812Z,2.80
2023-03-12T04:33:16.628Z,2.95
2023-03-12T04:36:16.169Z,4.43
2023-03-12T04:39:14.299Z,2.33
2023-03-12T04:42:11.587Z,5.35
2023-03-12T04:45:10.262Z,4.57
2023-03-12T04:48:07.105Z,5.85
2023-03-12T04:51:05.080Z,7.05
2023-03-12T04:54:02.006Z,6.25
2023-03-12T04:56:58.847Z,5.13
2023-03-12T04:59:55.715Z,4.07
2023-03-12T05:02:53.221Z,3.75
2023-03-12T05:05:50.058Z,4.55
2023-03-12T05:08:47.851Z,5.85
2023-03-12T05:11:44.671Z,5.53
2023-03-12T05:14:41.462Z,3.80
2023-03-12T05:17:38.324Z,6.53
2023-03-12T05:20:35.158Z,5.68
2023-03-12T05:23:32.255Z,4.50
2023-03-12T05:26:32.861Z,5.03
2023-03-12T05:29:35.283Z,4.85
2023-03-12T05:32:32.232Z,4.82
2023-03-12T05:35:29.047Z,4.70
2023-03-12T05:38:25.881Z,6.22
2023-03-12T05:41:27.523Z,7.57
2023-03-12T05:44:25.192Z,6.45
2023-03-12T05:47:22.359Z,5.70
2023-03-12T05:50:19.230Z,5.15
2023-03-12T05:53:16.073Z,4.93
2023-03-12T05:56:17.096Z,6.70
2023-03-12T05:59:14.494Z,4.45
2023-03-12T06:02:11.950Z,4.10
2023-03-12T06:05:12.417Z,3.63
2023-03-12T06:11:06.236Z,4.07
2023-03-12T06:14:03.846Z,5.32
2023-03-12T06:17:00.703Z,6.95
2023-03-12T06:19:57.791Z,4.95
2023-03-12T06:22:54.614Z,6.22
2023-03-12T06:25:51.404Z,8.50
2023-03-12T06:28:50.703Z,7.90
2023-03-12T06:31:48.319Z,7.40
2023-03-12T06:34:45.520Z,6.45
2023-03-12T06:37:42.367Z,6.90
2023-03-12T06:40:39.213Z,6.45
2023-03-12T06:43:37.706Z,5.63
2023-03-12T06:46:34.691Z,4.85
2023-03-12T06:49:33.279Z,6.95
2023-03-12T06:52:30.133Z,6.10
2023-03-12T06:55:27.030Z,11.23
2023-03-12T06:58:24.309Z,15.98
2023-03-12T07:01:21.172Z,11.25
2023-03-12T07:04:18.109Z,13.20
2023-03-12T07:07:16.993Z,12.25
2023-03-12T07:10:13.802Z,11.65
2023-03-12T07:13:11.242Z,23.05
2023-03-12T07:16:08.568Z,23.48
2023-03-12T07:19:05.514Z,27.75
2023-03-12T07:22:02.401Z,30.80
2023-03-12T07:24:59.292Z,53.78
2023-03-12T07:27:56.124Z,57.20
2023-03-12T07:30:53.014Z,22.73
2023-03-12T07:33:53.405Z,29.40
2023-03-12T07:39:51.306Z,16.85
2023-03-12T07:42:48.407Z,19.80
2023-03-12T07:45:45.812Z,8.63
2023-03-12T07:48:44.279Z,8.88
2023-03-12T07:51:41.358Z,7.55
2023-03-12T07:54:39.147Z,5.55
2023-03-12T07:57:36.434Z,5.32
2023-03-12T08:00:33.483Z,4.53
2023-03-12T08:03:30.889Z,6.38
2023-03-12T08:06:29.256Z,7.40
2023-03-12T08:09:26.078Z,4.85
2023-03-12T08:12:23.014Z,5.97
2023-03-12T08:15:20.317Z,4.32
2023-03-12T08:18:17.931Z,5.80
2023-03-12T08:21:16.640Z,5.43
2023-03-12T08:24:13.577Z,6.55
2023-03-12T08:27:12.147Z,5.80
2023-03-12T08:30:09.988Z,7.03
2023-03-12T08:33:07.006Z,7.88
2023-03-12T08:36:04.960Z,9.50
2023-03-12T08:39:02.016Z,9.48
2023-03-12T08:41:58.975Z,6.63
2023-03-12T08:44:56.476Z,3.88
2023-03-12T08:47:53.427Z,14.75
2023-03-12T08:50:50.906Z,7.88
2023-03-12T08:53:48.198Z,8.73
2023-03-12T08:56:46.581Z,10.60
2023-03-12T08:59:43.591Z,7.90
2023-03-12T09:02:40.758Z,7.00
2023-03-12T09:05:37.594Z,7.40
2023-03-12T09:08:34.489Z,10.82
2023-03-12T09:11:36.212Z,7.38
2023-03-12T09:15:02.143Z,10.63
2023-03-12T09:17:50.640Z,10.15
2023-03-12T09:20:47.466Z,5.20
2023-03-12T09:23:44.476Z,7.20
2023-03-12T09:26:41.372Z,5.15
2023-03-12T09:29:49.683Z,9.25
2023-03-12T09:32:54.094Z,8.13
2023-03-12T09:35:57.840Z,9.55
2023-03-12T09:38:55.092Z,7.18
2023-03-12T09:41:53.071Z,6.88
2023-03-12T09:44:57.438Z,5.63
2023-03-12T09:47:58.732Z,5.22
2023-03-12T09:50:55.981Z,7.97
2023-03-12T09:53:58.654Z,7.80
2023-03-12T09:57:00.629Z,6.72
2023-03-12T09:59:57.826Z,7.90
2023-03-12T10:03:06.625Z,9.10
2023-03-12T10:06:24.989Z,8.98
2023-03-12T10:09:59.225Z,9.15
2023-03-12T10:13:28.801Z,6.60
2023-03-12T10:16:50.170Z,3.92
2023-03-12T10:20:25.588Z,4.10
2023-03-12T10:24:13.525Z,3.05
2023-03-12T10:27:17.049Z,5.40
2023-03-12T10:30:26.799Z,5.47
2023-03-12T10:33:33.604Z,4.03
2023-03-12T10:36:40.249Z,5.63
2023-03-12T10:39:37.238Z,5.88
2023-03-12T10:42:34.242Z,7.72
2023-03-12T10:46:08.490Z,5.38
2023-03-12T10:49:23.541Z,5.70
2023-03-12T10:52:23.262Z,4.07
2023-03-12T10:55:30.690Z,6.55
2023-03-12T10:58:34.005Z,5.57
2023-03-12T11:01:32.061Z,5.60
2023-03-12T11:04:32.359Z,6.32
2023-03-12T11:07:35.399Z,4.57
2023-03-12T11:10:43.588Z,4.70
2023-03-12T11:13:42.221Z,6.75
2023-03-12T11:16:40.090Z,6.28
2023-03-12T11:19:37.611Z,11.85
2023-03-12T11:22:35.408Z,5.43
2023-03-12T11:25:32.302Z,3.40
2023-03-12T11:28:41.379Z,7.10
2023-03-12T11:31:47.223Z,7.68
2023-03-12T11:34:49.433Z,5.18
2023-03-12T11:38:17.442Z,7.20
2023-03-12T11:41:59.664Z,8.40
2023-03-12T11:45:15.353Z,7.88
2023-03-12T11:48:37.094Z,9.68
2023-03-12T11:52:15.134Z,6.50
2023-03-12T11:55:38.215Z,7.13
2023-03-12T11:58:51.325Z,5.38
2023-03-12T12:01:59.984Z,6.97
2023-03-12T12:05:34.761Z,6.68
2023-03-12T12:09:02.582Z,11.45
2023-03-12T12:12:33.895Z,6.72
2023-03-12T12:15:54.354Z,11.13
2023-03-12T12:19:38.007Z,12.38
2023-03-12T12:22:59.825Z,10.40
2023-03-12T12:26:13.246Z,9.70
2023-03-12T12:30:12.315Z,12.30
2023-03-12T12:33:52.214Z,17.77
2023-03-12T12:36:58.869Z,26.05
2023-03-12T12:40:15.752Z,12.48
2023-03-12T12:43:48.456Z,11.77
2023-03-12T12:46:52.352Z,13.93
2023-03-12T12:49:54.743Z,14.27
2023-03-12T12:53:25.315Z,13.23
2023-03-12T12:56:44.466Z,15.35
2023-03-12T12:59:52.256Z,21.65
2023-03-12T13:02:50.839Z,6.93
2023-03-12T13:06:04.970Z,8.50
2023-03-12T13:09:15.301Z,10.88
2023-03-12T13:12:25.473Z,9.77
2023-03-12T13:15:28.247Z,11.90
2023-03-12T13:18:28.354Z,11.10
2023-03-12T13:21:51.852Z,7.18
2023-03-12T13:25:29.321Z,9.65
2023-03-12T13:28:26.439Z,9.35
2023-03-12T13:31:29.585Z,14.20
2023-03-12T13:34:28.141Z,9.25
2023-03-12T13:37:52.626Z,7.90
2023-03-12T13:41:02.153Z,6.57
2023-03-12T13:43:59.612Z,17.52
2023-03-12T13:47:27.110Z,11.90
2023-03-12T13:50:24.306Z,9.80
2023-03-12T13:53:35.714Z,10.85
2023-03-12T13:56:33.939Z,16.75
2023-03-12T13:59:41.947Z,30.17
2023-03-12T14:02:51.765Z,41.00
2023-03-12T14:06:14.176Z,31.23
2023-03-12T14:09:51.959Z,7.40
2023-03-12T14:13:02.256Z,7.28
2023-03-12T14:16:25.931Z,10.77
2023-03-12T14:19:33.281Z,9.18
2023-03-12T14:22:34.809Z,5.55
2023-03-12T14:25:44.527Z,9.45
2023-03-12T14:28:42.229Z,7.55
2023-03-12T14:31:40.256Z,8.57
2023-03-12T14:35:08.238Z,8.15
2023-03-12T14:38:16.669Z,6.63
2023-03-12T14:41:24.182Z,7.47
2023-03-12T14:44:28.240Z,5.32
2023-03-12T14:47:25.254Z,6.97
2023-03-12T14:50:37.210Z,5.75
2023-03-12T14:53:39.731Z,7.53
2023-03-12T14:56:36.647Z,4.05
2023-03-12T14:59:38.933Z,5.88
2023-03-12T15:02:38.070Z,6.30
2023-03-12T15:05:36.172Z,5.30
2023-03-12T15:08:44.876Z,5.97
2023-03-12T15:11:41.718Z,5.47
2023-03-12T15:14:42.110Z,5.18
2023-03-12T15:17:39.153Z,5.00
2023-03-12T15:20:36.395Z,7.22
2023-03-12T15:23:37.820Z,9.95
2023-03-12T15:26:38.025Z,5.53
2023-03-12T15:29:41.529Z,4.50
2023-03-12T15:32:38.686Z,4.53
2023-03-12T15:35:40.060Z,6.47
2023-03-12T15:38:38.362Z,6.15
2023-03-12T15:41:49.134Z,5.22
2023-03-12T15:47:49.670Z,4.95
2023-03-12T15:50:46.593Z,16.13
2023-03-12T15:53:43.537Z,6.45
2023-03-12T15:56:40.420Z,8.32
2023-03-12T15:59:37.348Z,12.65
2023-03-12T16:02:40.351Z,8.15
2023-03-12T16:05:39.935Z,3.92
2023-03-12T16:09:03.434Z,4.65
2023-03-12T16:12:00.292Z,4.57
2023-03-12T16:14:57.350Z,5.35
2023-03-12T16:17:54.220Z,10.75
2023-03-12T16:20:52.879Z,7.22
2023-03-12T16:23:49.703Z,14.35
2023-03-12T16:26:58.613Z,16.02
2023-03-12T16:29:55.644Z,40.40
2023-03-12T16:32:52.607Z,7.78
2023-03-12T16:35:49.521Z,9.82
2023-03-12T16:38:47.099Z,7.97
2023-03-12T16:41:44.230Z,8.10
2023-03-12T16:44:41.674Z,7.65
2023-03-12T16:47:40.166Z,10.27
2023-03-12T16:50:37.148Z,8.85
2023-03-12T16:53:33.970Z,9.10
2023-03-12T16:56:31.164Z,8.30
2023-03-12T16:59:31.889Z,6.45
2023-03-12T17:05:30.038Z,5.90
2023-03-12T17:08:27.383Z,6.30
2023-03-12T17:11:29.197Z,12.00
2023-03-12T17:14:29.408Z,14.10
2023-03-12T17:17:26.347Z,7.97
2023-03-12T17:20:24.462Z,14.15
2023-03-12T17:23:22.633Z,10.20
2023-03-12T17:26:19.767Z,12.60
2023-03-12T17:29:16.620Z,12.93
2023-03-12T17:32:13.466Z,16.00
2023-03-12T17:35:10.749Z,20.05
2023-03-12T17:38:08.203Z,11.48
2023-03-12T17:41:09.408Z,13.68
2023-03-12T17:44:11.822Z,15.77
2023-03-12T17:47:08.829Z,17.00
2023-03-12T17:50:07.865Z,21.00
2023-03-12T17:53:04.717Z,30.08
2023-03-12T17:56:01.872Z,22.20
2023-03-12T17:58:58.787Z,48.20
2023-03-12T18:01:55.787Z,46.13
2023-03-12T18:04:52.820Z,41.22
2023-03-12T18:07:50.985Z,50.60
2023-03-12T18:10:48.608Z,52.30
2023-03-12T18:13:48.509Z,29.50
2023-03-12T18:16:45.598Z,19.02
2023-03-12T18:19:42.513Z,34.05
2023-03-12T18:22:39.659Z,20.05
2023-03-12T18:25:38.242Z,38.90
2023-03-12T18:28:35.082Z,21.88
2023-03-12T18:31:31.932Z,19.70
2023-03-12T18:34:28.889Z,17.10
2023-03-12T18:37:25.803Z,22.83
2023-03-12T18:40:23.087Z,40.85
2023-03-12T18:43:21.811Z,26.85
2023-03-12T18:46:19.006Z,19.60
2023-03-12T18:49:15.872Z,16.80
2023-03-12T18:52:12.691Z,15.40
2023-03-12T18:55:15.419Z,17.75
2023-03-12T18:58:12.230Z,21.90
2023-03-12T19:01:09.129Z,24.73
2023-03-12T19:04:06.042Z,24.13
2023-03-12T19:07:03.265Z,24.52
2023-03-12T19:10:00.107Z,26.38
2023-03-12T19:12:56.963Z,16.13
2023-03-12T19:16:03.425Z,23.85
2023-03-12T19:19:00.381Z,15.68
2023-03-12T19:21:57.435Z,14.82
2023-03-12T19:24:55.122Z,16.17
2023-03-12T19:27:52.468Z,20.00
2023-03-12T19:30:49.794Z,19.60
2023-03-12T19:33:46.890Z,20.63
2023-03-12T19:36:44.375Z,20.45
2023-03-12T19:39:41.513Z,23.95
2023-03-12T19:42:38.720Z,24.13
2023-03-12T19:45:36.896Z,16.77
2023-03-12T19:48:33.800Z,15.73
2023-03-12T19:51:30.604Z,14.57
2023-03-12T19:54:27.711Z,18.13
2023-03-12T19:57:27.385Z,21.05
2023-03-12T20:00:24.302Z,25.50
2023-03-12T20:03:22.169Z,43.38
2023-03-12T20:06:19.043Z,24.60
2023-03-12T20:09:15.938Z,76.78
2023-03-12T20:12:12.771Z,28.42
2023-03-12T20:15:09.945Z,24.77
2023-03-12T20:18:06.810Z,25.15
2023-03-12T20:21:03.812Z,21.77
2023-03-12T20:24:02.165Z,18.63
2023-03-12T20:26:59.013Z,18.05
2023-03-12T20:29:55.910Z,64.93
2023-03-12T20:32:52.790Z,22.90
2023-03-12T20:35:50.532Z,24.05
2023-03-12T20:38:49.390Z,29.42
2023-03-12T20:41:46.242Z,20.10
2023-03-12T20:44:43.069Z,22.92
2023-03-12T20:47:40.384Z,22.45
2023-03-12T20:50:39.066Z,19.02
2023-03-12T20:53:35.906Z,21.92
2023-03-12T20:56:32.708Z,31.90
2023-03-12T20:59:29.520Z,25.42
2023-03-12T21:02:26.554Z,23.67
2023-03-12T21:05:25.051Z,26.23
2023-03-12T21:08:22.980Z,22.98
2023-03-12T21:11:19.791Z,27.58
2023-03-12T21:14:16.933Z,25.73
2023-03-12T21:17:14.710Z,25.55
2023-03-12T21:20:14.366Z,32.83
2023-03-12T21:23:11.816Z,40.50
2023-03-12T21:26:09.618Z,39.38
2023-03-12T21:29:06.680Z,33.25
2023-03-12T21:32:03.494Z,38.50
2023-03-12T21:35:00.404Z,32.38
2023-03-12T21:37:57.229Z,36.90
2023-03-12T21:40:54.280Z,28.55
2023-03-12T21:43:51.112Z,42.13
2023-03-12T21:46:47.937Z,40.60
2023-03-12T21:49:44.973Z,38.88
2023-03-12T21:52:47.670Z,40.33
2023-03-12T21:56:01.026Z,37.17
2023-03-12T21:58:58.291Z,26.73
2023-03-12T22:01:56.142Z,28.17
2023-03-12T22:04:53.171Z,27.92
2023-03-12T22:07:50.024Z,18.30
2023-03-12T22:10:47.853Z,21.67
2023-03-12T22:13:44.892Z,22.38
2023-03-12T22:16:41.717Z,36.85
2023-03-12T22:19:40.337Z,25.58
2023-03-12T22:22:38.434Z,24.63
2023-03-12T22:25:35.345Z,30.77
2023-03-12T22:28:32.792Z,22.73
2023-03-12T22:31:30.415Z,22.52
2023-03-12T22:34:27.446Z,20.23
2023-03-12T22:37:24.319Z,20.55
2023-03-12T22:40:21.187Z,22.33
2023-03-12T22:43:18.046Z,17.85
2023-03-12T22:46:16.593Z,15.50
2023-03-12T22:49:14.975Z,22.67
2023-03-12T22:52:11.796Z,19.42
2023-03-12T22:55:09.240Z,22.17
2023-03-12T22:58:06.252Z,24.40
2023-03-12T23:01:13.404Z,14.45
2023-03-12T23:04:10.221Z,17.30
2023-03-12T23:07:14.938Z,20.42
2023-03-12T23:10:14.482Z,20.13
2023-03-12T23:13:11.792Z,23.42
2023-03-12T23:16:12.579Z,23.02
2023-03-12T23:19:09.457Z,24.05
2023-03-12T23:22:07.408Z,17.30
2023-03-12T23:25:04.777Z,22.80
2023-03-12T23:28:01.620Z,16.50
2023-03-12T23:31:02.399Z,15.57
2023-03-12T23:36:56.113Z,16.83
2023-03-12T23:39:55.105Z,14.93
2023-03-12T23:42:52.110Z,17.30
2023-03-12T23:45:59.950Z,16.83
2023-03-12T23:48:57.394Z,12.63
2023-03-12T23:51:54.200Z,18.92
2023-03-12T23:54:51.409Z,21.67
2023-03-12T23:57:48.209Z,13.02
